Riley, Oregon
Current Conditions -  °F | °C
As of 7:53 AM on Wednesday 28 Jan 2015 (Local Time) from KBNO Reporting Station
Moderate Fog Moderate Fog  
Wind Chill: 31°   Ceiling: 100
Heat Index: 31°   Visibility: 0mi
Dew Point: 30°   Wind: 3mph
Humidity: 96%   Direction: 290°WNW
Pressure: 30.35"   Gusts: NA
Location:  43.54°N, 119.51°W
Report Text: KBNO 281553Z AUTO 29003KT M1/4SM FZFG VV001 M01/M01 A3035 RMK AO2 SLP300 T10061011
Loading
Personal Weather Stations






























Interactive Weather Map New forecast layout! Learn more

10-Day Weather Forecast

Advertisements
Track Severe Weather on mobile